Norsul Tubarao — 3FJV6 — position and weather

sailwx.info

Track history (hours):
 
Tides and Currents Weather Stations Pressure Air Temp Water Temp Dewpoint Dewpoint Depression Visibility Wind Speed Wind Dir Waves Ship Positions

Norsul Tubarao

Last reported at 2017-Mar-07 02:32 UTC. Time now 2017-Mar-27 16:36 UTC.
Position N 01°15' E 104°04'.
Warning: this ship's position is 20 days out of date.

Length 175 m; draft 7.3 m.

Type: Cargo ship. MMSI: 373182000.

Date/timePositionNaut miles runAvg speedWind from/ knotsBaromVisibWave heightAir tempDewpointWater temp
2017-Mar-07 02:32N 01°15' E 104°04'1010.5
2017-Mar-07 01:33N 01°13' E 103°54'1110.9
2017-Mar-07 00:33N 01°07' E 103°44'8 8.0
2017-Mar-06 23:33N 01°04' E 103°37'9 9.1
2017-Mar-06 22:33N 01°09' E 103°29'1010.3
2017-Mar-06 21:33N 01°15' E 103°21'3811.7
2017-Mar-06 18:17N 01°37' E 102°50'911.8
2017-Mar-06 17:33N 01°42' E 102°42'1211.9
2017-Mar-06 16:32N 01°46' E 102°31'1211.9
2017-Mar-06 15:30N 01°51' E 102°20'  
Track history (hours):
 
Tides and Currents Weather Stations Pressure Air Temp Water Temp Dewpoint Dewpoint Depression Visibility Wind Speed Wind Dir Waves Ship Positions

Norsul Tubarao

Last reported at 2017-Mar-07 02:32 UTC. Time now 2017-Mar-27 16:36 UTC.
Position N 01°15' E 104°04'.
Warning: this ship's position is 20 days out of date.

Length 175 m; draft 7.3 m.

Type: Cargo ship. MMSI: 373182000.

Date/timePositionNaut miles runAvg speedWind from/ knotsBaromVisibWave heightAir tempDewpointWater temp
2017-Mar-07 02:32N 01°15' E 104°04'1010.5
2017-Mar-07 01:33N 01°13' E 103°54'1110.9
2017-Mar-07 00:33N 01°07' E 103°44'8 8.0
2017-Mar-06 23:33N 01°04' E 103°37'9 9.1
2017-Mar-06 22:33N 01°09' E 103°29'1010.3
2017-Mar-06 21:33N 01°15' E 103°21'3811.7
2017-Mar-06 18:17N 01°37' E 102°50'911.8
2017-Mar-06 17:33N 01°42' E 102°42'1211.9
2017-Mar-06 16:32N 01°46' E 102°31'1211.9
2017-Mar-06 15:30N 01°51' E 102°20'  

Dump ship's entire track history